Amherst, Colorado
Current Conditions -  °F | °C
As of 7:55 AM on Thursday 30 Oct 2014 (Local Time) from KHEQ Reporting Station
Clear Clear  
Wind Chill:   Ceiling: Unl
Heat Index:   Visibility: 10mi
Dew Point: -1°   Wind: 8mph
Humidity: 61%   Direction: 300°WNW
Pressure: 30.29"   Gusts: NA
Location:  40.68°N, 102.17°W
Report Text: KHEQ 301355Z AUTO 30007KT 10SM CLR 06/M01 A3029 RMK AO2
Loading
Personal Weather Stations






























Interactive Weather Map
Tropical Storm Tracking
New forecast layout! Learn more

10-Day Weather Forecast

Advertisements
Track Severe Weather on mobile